JST813 YBBN-YSSY
Flight info
| Callsign | JST813 |
|---|---|
| Flight time | 1h 13m |
| Altitude | 32000 |
| Route | BN H91 IGDAM/N0438F330 H652 TESAT |
| Aircraft | A320/M-SDE3FGHIRWY/LB1 |
Departure
| Time | 2026-05-03 23:31 |
|---|---|
| Airport | Brisbane International Airport (YBBN) |
Arrival
| Time | 2026-05-04 00:44 |
|---|---|
| Airport | Sydney Kingsford Smith International Airport (YSSY) |
| Time | Latitude | Longitude | Altitude | Speed | Heading |
|---|---|---|---|---|---|
| 2026-05-03 23:13 | -27.38532 | 153.12122 | 21 ft | 0 kts | 290° |
| 2026-05-03 23:21 | -27.38534 | 153.12126 | 21 ft | 3 kts | 292° |
| 2026-05-03 23:21 | -27.38545 | 153.12143 | 23 ft | 3 kts | 289° |
| 2026-05-03 23:21 | -27.38547 | 153.12161 | 21 ft | 4 kts | 234° |
| 2026-05-03 23:21 | -27.38533 | 153.12183 | 24 ft | 4 kts | 233° |
| 2026-05-03 23:22 | -27.38497 | 153.12223 | 25 ft | 4 kts | 226° |
| 2026-05-03 23:22 | -27.38483 | 153.12246 | 21 ft | 4 kts | 268° |
| 2026-05-03 23:22 | -27.38489 | 153.12271 | 24 ft | 4 kts | 297° |
| 2026-05-03 23:23 | -27.38494 | 153.12281 | 24 ft | 0 kts | 297° |
| 2026-05-03 23:26 | -27.38491 | 153.12276 | 24 ft | 2 kts | 302° |
| 2026-05-03 23:26 | -27.38478 | 153.12269 | 24 ft | 2 kts | 351° |
| 2026-05-03 23:26 | -27.38468 | 153.12282 | 22 ft | 3 kts | 52° |
| 2026-05-03 23:27 | -27.38458 | 153.12309 | 21 ft | 5 kts | 66° |
| 2026-05-03 23:27 | -27.38443 | 153.12347 | 21 ft | 5 kts | 66° |
| 2026-05-03 23:27 | -27.38433 | 153.12391 | 21 ft | 7 kts | 94° |
| 2026-05-03 23:27 | -27.38455 | 153.12444 | 21 ft | 8 kts | 116° |
| 2026-05-03 23:28 | -27.38442 | 153.12505 | 22 ft | 10 kts | 41° |
| 2026-05-03 23:28 | -27.38379 | 153.12544 | 21 ft | 11 kts | 27° |
| 2026-05-03 23:28 | -27.38303 | 153.12587 | 21 ft | 13 kts | 27° |
| 2026-05-03 23:28 | -27.38217 | 153.12637 | 23 ft | 15 kts | 27° |
| 2026-05-03 23:29 | -27.38118 | 153.12693 | 21 ft | 17 kts | 27° |
| 2026-05-03 23:29 | -27.38032 | 153.12742 | 21 ft | 10 kts | 27° |
| 2026-05-03 23:29 | -27.37991 | 153.12798 | 21 ft | 10 kts | 83° |
| 2026-05-03 23:29 | -27.38020 | 153.12878 | 21 ft | 12 kts | 116° |
| 2026-05-03 23:30 | -27.38061 | 153.12967 | 21 ft | 10 kts | 117° |
| 2026-05-03 23:30 | -27.38110 | 153.13025 | 23 ft | 11 kts | 156° |
| 2026-05-03 23:30 | -27.38191 | 153.13017 | 22 ft | 13 kts | 205° |
| 2026-05-03 23:30 | -27.38320 | 153.12942 | 24 ft | 45 kts | 207° |
| 2026-05-03 23:31 | -27.38806 | 153.12665 | 22 ft | 108 kts | 207° |
| 2026-05-03 23:31 | -27.39618 | 153.12200 | 23 ft | 155 kts | 207° |
| 2026-05-03 23:31 | -27.40591 | 153.11643 | 569 ft | 152 kts | 206° |
| 2026-05-03 23:31 | -27.41546 | 153.11105 | 1123 ft | 153 kts | 205° |
| 2026-05-03 23:32 | -27.42542 | 153.10805 | 1622 ft | 151 kts | 172° |
| 2026-05-03 23:32 | -27.43539 | 153.11208 | 2018 ft | 157 kts | 150° |
| 2026-05-03 23:32 | -27.44529 | 153.11829 | 2406 ft | 167 kts | 149° |
| 2026-05-03 23:32 | -27.45579 | 153.12453 | 2811 ft | 177 kts | 152° |
| 2026-05-03 23:33 | -27.46723 | 153.13076 | 3241 ft | 186 kts | 150° |
| 2026-05-03 23:33 | -27.47881 | 153.13774 | 3683 ft | 195 kts | 148° |
| 2026-05-03 23:33 | -27.49129 | 153.14490 | 4094 ft | 209 kts | 158° |
| 2026-05-03 23:33 | -27.50606 | 153.14718 | 4512 ft | 225 kts | 182° |
| 2026-05-03 23:34 | -27.52228 | 153.14365 | 4900 ft | 246 kts | 190° |
| 2026-05-03 23:34 | -27.53961 | 153.13928 | 5404 ft | 262 kts | 191° |
| 2026-05-03 23:34 | -27.55768 | 153.13465 | 5980 ft | 276 kts | 191° |
| 2026-05-03 23:34 | -27.57645 | 153.12865 | 6753 ft | 281 kts | 197° |
| 2026-05-03 23:35 | -27.59517 | 153.12134 | 7542 ft | 285 kts | 199° |
| 2026-05-03 23:35 | -27.61362 | 153.11362 | 8333 ft | 287 kts | 200° |
| 2026-05-03 23:35 | -27.63246 | 153.10591 | 9186 ft | 288 kts | 199° |
| 2026-05-03 23:35 | -27.65167 | 153.09895 | 9995 ft | 292 kts | 198° |
| 2026-05-03 23:36 | -27.67149 | 153.09225 | 10504 ft | 304 kts | 197° |
| 2026-05-03 23:36 | -27.69233 | 153.08541 | 10671 ft | 327 kts | 197° |
| 2026-05-03 23:36 | -27.71500 | 153.07803 | 10930 ft | 344 kts | 197° |
| 2026-05-03 23:36 | -27.73800 | 153.07053 | 11476 ft | 350 kts | 198° |
| 2026-05-03 23:37 | -27.76168 | 153.06275 | 12087 ft | 354 kts | 198° |
| 2026-05-03 23:37 | -27.78548 | 153.05484 | 12702 ft | 358 kts | 199° |
| 2026-05-03 23:37 | -27.80925 | 153.04688 | 13297 ft | 361 kts | 199° |
| 2026-05-03 23:37 | -27.83330 | 153.03820 | 13889 ft | 364 kts | 202° |
| 2026-05-03 23:38 | -27.85722 | 153.02829 | 14412 ft | 367 kts | 204° |
| 2026-05-03 23:38 | -27.88117 | 153.01763 | 14929 ft | 370 kts | 205° |
| 2026-05-03 23:38 | -27.90487 | 153.00680 | 15445 ft | 373 kts | 205° |
| 2026-05-03 23:38 | -27.92904 | 152.99572 | 15964 ft | 376 kts | 205° |
| 2026-05-03 23:39 | -27.95352 | 152.98465 | 16479 ft | 379 kts | 205° |
| 2026-05-03 23:39 | -27.97825 | 152.97365 | 16991 ft | 383 kts | 205° |
| 2026-05-03 23:39 | -28.00315 | 152.96270 | 17502 ft | 386 kts | 205° |
| 2026-05-03 23:39 | -28.02829 | 152.95167 | 18016 ft | 389 kts | 205° |
| 2026-05-03 23:40 | -28.05343 | 152.94066 | 18536 ft | 392 kts | 205° |
| 2026-05-03 23:40 | -28.07907 | 152.92943 | 19002 ft | 395 kts | 205° |
| 2026-05-03 23:40 | -28.10482 | 152.91815 | 19492 ft | 398 kts | 205° |
| 2026-05-03 23:40 | -28.13078 | 152.90669 | 19987 ft | 400 kts | 206° |
| 2026-05-03 23:41 | -28.15657 | 152.89524 | 20488 ft | 403 kts | 206° |
| 2026-05-03 23:41 | -28.18276 | 152.88355 | 21001 ft | 405 kts | 206° |
| 2026-05-03 23:41 | -28.20885 | 152.87192 | 21500 ft | 407 kts | 206° |
| 2026-05-03 23:41 | -28.23542 | 152.86009 | 21994 ft | 410 kts | 206° |
| 2026-05-03 23:42 | -28.26210 | 152.84820 | 22486 ft | 413 kts | 206° |
| 2026-05-03 23:42 | -28.28901 | 152.83621 | 22961 ft | 415 kts | 206° |
| 2026-05-03 23:42 | -28.31569 | 152.82432 | 23411 ft | 418 kts | 206° |
| 2026-05-03 23:42 | -28.34300 | 152.81214 | 23856 ft | 421 kts | 207° |
| 2026-05-03 23:43 | -28.37040 | 152.79991 | 24222 ft | 423 kts | 207° |
| 2026-05-03 23:43 | -28.39767 | 152.78774 | 24601 ft | 424 kts | 207° |
| 2026-05-03 23:43 | -28.42526 | 152.77543 | 24962 ft | 426 kts | 207° |
| 2026-05-03 23:43 | -28.45275 | 152.76313 | 25335 ft | 429 kts | 207° |
| 2026-05-03 23:44 | -28.48073 | 152.75060 | 25700 ft | 431 kts | 207° |
| 2026-05-03 23:44 | -28.50875 | 152.73805 | 26065 ft | 432 kts | 208° |
| 2026-05-03 23:44 | -28.53678 | 152.72549 | 26423 ft | 434 kts | 208° |
| 2026-05-03 23:44 | -28.56467 | 152.71300 | 26776 ft | 436 kts | 208° |
| 2026-05-03 23:45 | -28.59303 | 152.70029 | 27160 ft | 438 kts | 208° |
| 2026-05-03 23:45 | -28.62151 | 152.68752 | 27511 ft | 440 kts | 208° |
| 2026-05-03 23:45 | -28.65018 | 152.67464 | 27860 ft | 442 kts | 208° |
| 2026-05-03 23:45 | -28.67864 | 152.66185 | 28202 ft | 445 kts | 209° |
| 2026-05-03 23:46 | -28.70754 | 152.64884 | 28565 ft | 446 kts | 209° |
| 2026-05-03 23:46 | -28.73661 | 152.63576 | 28911 ft | 449 kts | 209° |
| 2026-05-03 23:46 | -28.76573 | 152.62267 | 29239 ft | 451 kts | 209° |
| 2026-05-03 23:46 | -28.79464 | 152.60968 | 29565 ft | 453 kts | 209° |
| 2026-05-03 23:47 | -28.82418 | 152.59641 | 29991 ft | 452 kts | 209° |
| 2026-05-03 23:47 | -28.85299 | 152.58286 | 30455 ft | 446 kts | 214° |
| 2026-05-03 23:47 | -28.88048 | 152.56667 | 30882 ft | 442 kts | 216° |
| 2026-05-03 23:47 | -28.90739 | 152.55067 | 31315 ft | 439 kts | 216° |
| 2026-05-03 23:48 | -28.93452 | 152.53455 | 31773 ft | 436 kts | 217° |
| 2026-05-03 23:48 | -28.96149 | 152.51854 | 32124 ft | 435 kts | 217° |
| 2026-05-03 23:48 | -29.01474 | 152.48691 | 32217 ft | 432 kts | 217° |
| 2026-05-03 23:49 | -29.06787 | 152.45520 | 32232 ft | 431 kts | 217° |
| 2026-05-03 23:49 | -29.12117 | 152.42338 | 32216 ft | 431 kts | 217° |
| 2026-05-03 23:50 | -29.16550 | 152.39685 | 32221 ft | 431 kts | 217° |
| 2026-05-03 23:50 | -29.22716 | 152.35988 | 32220 ft | 431 kts | 218° |
| 2026-05-03 23:51 | -29.28047 | 152.32798 | 32219 ft | 431 kts | 218° |
| 2026-05-03 23:51 | -29.33337 | 152.29630 | 32240 ft | 431 kts | 217° |
| 2026-05-03 23:52 | -29.38665 | 152.26427 | 32237 ft | 431 kts | 218° |
| 2026-05-03 23:52 | -29.43979 | 152.23234 | 32232 ft | 430 kts | 218° |
| 2026-05-03 23:53 | -29.49278 | 152.20046 | 32231 ft | 431 kts | 218° |
| 2026-05-03 23:53 | -29.54567 | 152.16861 | 32248 ft | 430 kts | 218° |
| 2026-05-03 23:54 | -29.59848 | 152.13673 | 32237 ft | 430 kts | 218° |
| 2026-05-03 23:54 | -29.65163 | 152.10460 | 32230 ft | 430 kts | 218° |
| 2026-05-03 23:55 | -29.70567 | 152.07462 | 32233 ft | 442 kts | 208° |
| 2026-05-03 23:55 | -29.75618 | 152.06026 | 32254 ft | 451 kts | 203° |
| 2026-05-03 23:56 | -29.81773 | 152.04427 | 32242 ft | 452 kts | 203° |
| 2026-05-03 23:56 | -29.87890 | 152.02842 | 32236 ft | 452 kts | 203° |
| 2026-05-03 23:57 | -29.93989 | 152.01251 | 32228 ft | 452 kts | 203° |
| 2026-05-03 23:57 | -30.00143 | 151.99638 | 32232 ft | 452 kts | 203° |
| 2026-05-03 23:58 | -30.06248 | 151.98032 | 32216 ft | 452 kts | 203° |
| 2026-05-03 23:58 | -30.12382 | 151.96417 | 32222 ft | 453 kts | 203° |
| 2026-05-03 23:59 | -30.18546 | 151.94804 | 32224 ft | 453 kts | 203° |
| 2026-05-03 23:59 | -30.24648 | 151.93204 | 32229 ft | 453 kts | 203° |
| 2026-05-04 00:00 | -30.30810 | 151.91577 | 32214 ft | 452 kts | 204° |
| 2026-05-04 00:00 | -30.33780 | 151.90506 | 32212 ft | 440 kts | 212° |
| 2026-05-04 00:00 | -30.36618 | 151.89179 | 32211 ft | 439 kts | 212° |
| 2026-05-04 00:01 | -30.42271 | 151.86543 | 32209 ft | 440 kts | 212° |
| 2026-05-04 00:01 | -30.47939 | 151.83902 | 32226 ft | 441 kts | 212° |
| 2026-05-04 00:02 | -30.53648 | 151.81250 | 32220 ft | 441 kts | 212° |
| 2026-05-04 00:02 | -30.59317 | 151.78603 | 32216 ft | 440 kts | 212° |
| 2026-05-04 00:03 | -30.65016 | 151.75939 | 32213 ft | 440 kts | 212° |
| 2026-05-04 00:03 | -30.70684 | 151.73296 | 32231 ft | 441 kts | 212° |
| 2026-05-04 00:04 | -30.76363 | 151.70645 | 32223 ft | 440 kts | 213° |
| 2026-05-04 00:04 | -30.82025 | 151.67987 | 32220 ft | 440 kts | 213° |
| 2026-05-04 00:05 | -30.87726 | 151.65305 | 32215 ft | 440 kts | 213° |
| 2026-05-04 00:05 | -30.93394 | 151.62641 | 32238 ft | 440 kts | 213° |
| 2026-05-04 00:06 | -30.99042 | 151.59982 | 32222 ft | 440 kts | 213° |
| 2026-05-04 00:06 | -31.04713 | 151.57312 | 32214 ft | 440 kts | 213° |
| 2026-05-04 00:07 | -31.10404 | 151.54620 | 32208 ft | 440 kts | 213° |
| 2026-05-04 00:07 | -31.16069 | 151.51941 | 32229 ft | 440 kts | 213° |
| 2026-05-04 00:08 | -31.21737 | 151.49259 | 32212 ft | 440 kts | 213° |
| 2026-05-04 00:08 | -31.27406 | 151.46574 | 32203 ft | 440 kts | 213° |
| 2026-05-04 00:09 | -31.33109 | 151.43865 | 32200 ft | 440 kts | 213° |
| 2026-05-04 00:09 | -31.38767 | 151.41177 | 32207 ft | 441 kts | 213° |
| 2026-05-04 00:10 | -31.44479 | 151.38569 | 32192 ft | 443 kts | 212° |
| 2026-05-04 00:10 | -31.50268 | 151.36027 | 32189 ft | 443 kts | 211° |
| 2026-05-04 00:11 | -31.56010 | 151.33494 | 32216 ft | 443 kts | 212° |
| 2026-05-04 00:11 | -31.61789 | 151.30913 | 32183 ft | 444 kts | 212° |
| 2026-05-04 00:12 | -31.67542 | 151.28324 | 32169 ft | 444 kts | 212° |
| 2026-05-04 00:12 | -31.73307 | 151.25726 | 32150 ft | 444 kts | 212° |
| 2026-05-04 00:13 | -31.79113 | 151.23114 | 32158 ft | 445 kts | 212° |
| 2026-05-04 00:13 | -31.84892 | 151.20514 | 32149 ft | 446 kts | 212° |
| 2026-05-04 00:14 | -31.90685 | 151.17908 | 32139 ft | 447 kts | 212° |
| 2026-05-04 00:14 | -31.96517 | 151.15281 | 32139 ft | 447 kts | 212° |
| 2026-05-04 00:15 | -32.02327 | 151.12679 | 32163 ft | 448 kts | 212° |
| 2026-05-04 00:15 | -32.08141 | 151.10078 | 32150 ft | 448 kts | 212° |
| 2026-05-04 00:16 | -32.13950 | 151.07463 | 32140 ft | 448 kts | 212° |
| 2026-05-04 00:16 | -32.19797 | 151.04824 | 32137 ft | 448 kts | 212° |
| 2026-05-04 00:17 | -32.25597 | 151.02207 | 32137 ft | 449 kts | 213° |
| 2026-05-04 00:17 | -32.28529 | 151.00887 | 31486 ft | 452 kts | 212° |
| 2026-05-04 00:17 | -32.31443 | 150.99577 | 30940 ft | 450 kts | 212° |
| 2026-05-04 00:18 | -32.34376 | 150.98261 | 30404 ft | 448 kts | 212° |
| 2026-05-04 00:18 | -32.37289 | 150.96948 | 29807 ft | 446 kts | 211° |
| 2026-05-04 00:18 | -32.40143 | 150.95660 | 29280 ft | 442 kts | 211° |
| 2026-05-04 00:18 | -32.43006 | 150.94365 | 28746 ft | 438 kts | 211° |
| 2026-05-04 00:19 | -32.45849 | 150.93078 | 28215 ft | 435 kts | 210° |
| 2026-05-04 00:19 | -32.48799 | 150.92088 | 27689 ft | 444 kts | 198° |
| 2026-05-04 00:19 | -32.51864 | 150.91766 | 27172 ft | 453 kts | 186° |
| 2026-05-04 00:19 | -32.55032 | 150.92137 | 26641 ft | 458 kts | 178° |
| 2026-05-04 00:20 | -32.58185 | 150.92709 | 26128 ft | 455 kts | 177° |
| 2026-05-04 00:20 | -32.61287 | 150.93266 | 25619 ft | 451 kts | 177° |
| 2026-05-04 00:20 | -32.64380 | 150.93820 | 25130 ft | 448 kts | 177° |
| 2026-05-04 00:20 | -32.67466 | 150.94365 | 24648 ft | 445 kts | 177° |
| 2026-05-04 00:21 | -32.70499 | 150.94898 | 24172 ft | 443 kts | 176° |
| 2026-05-04 00:21 | -32.73545 | 150.95436 | 23682 ft | 440 kts | 176° |
| 2026-05-04 00:21 | -32.76573 | 150.95974 | 23167 ft | 436 kts | 176° |
| 2026-05-04 00:21 | -32.79523 | 150.96501 | 22733 ft | 432 kts | 176° |
| 2026-05-04 00:22 | -32.82497 | 150.97033 | 22276 ft | 427 kts | 175° |
| 2026-05-04 00:22 | -32.85436 | 150.97558 | 21804 ft | 425 kts | 175° |
| 2026-05-04 00:22 | -32.88331 | 150.98071 | 21356 ft | 422 kts | 175° |
| 2026-05-04 00:22 | -32.91235 | 150.98585 | 20885 ft | 420 kts | 175° |
| 2026-05-04 00:23 | -32.94102 | 150.99098 | 20395 ft | 419 kts | 175° |
| 2026-05-04 00:23 | -32.96988 | 150.99612 | 19897 ft | 417 kts | 174° |
| 2026-05-04 00:23 | -32.99868 | 151.00125 | 19441 ft | 415 kts | 174° |
| 2026-05-04 00:23 | -33.02678 | 151.00625 | 18958 ft | 413 kts | 174° |
| 2026-05-04 00:24 | -33.05512 | 151.01129 | 18489 ft | 411 kts | 174° |
| 2026-05-04 00:24 | -33.08331 | 151.01633 | 18082 ft | 405 kts | 173° |
| 2026-05-04 00:24 | -33.11129 | 151.02135 | 17531 ft | 403 kts | 173° |
| 2026-05-04 00:24 | -33.13860 | 151.02629 | 16996 ft | 401 kts | 173° |
| 2026-05-04 00:25 | -33.16597 | 151.03122 | 16582 ft | 395 kts | 173° |
| 2026-05-04 00:25 | -33.19309 | 151.03611 | 16116 ft | 391 kts | 173° |
| 2026-05-04 00:25 | -33.22008 | 151.04094 | 15615 ft | 388 kts | 173° |
| 2026-05-04 00:25 | -33.24663 | 151.04569 | 15194 ft | 383 kts | 173° |
| 2026-05-04 00:26 | -33.27248 | 151.05047 | 14751 ft | 380 kts | 173° |
| 2026-05-04 00:26 | -33.29856 | 151.05548 | 14278 ft | 377 kts | 173° |
| 2026-05-04 00:26 | -33.32420 | 151.06050 | 13831 ft | 374 kts | 173° |
| 2026-05-04 00:26 | -33.34982 | 151.06551 | 13241 ft | 367 kts | 173° |
| 2026-05-04 00:27 | -33.37469 | 151.07033 | 12702 ft | 352 kts | 173° |
| 2026-05-04 00:27 | -33.39812 | 151.07485 | 12288 ft | 337 kts | 173° |
| 2026-05-04 00:27 | -33.42092 | 151.07924 | 11882 ft | 324 kts | 173° |
| 2026-05-04 00:27 | -33.44293 | 151.08345 | 11488 ft | 314 kts | 173° |
| 2026-05-04 00:28 | -33.46425 | 151.08749 | 11110 ft | 314 kts | 173° |
| 2026-05-04 00:28 | -33.48593 | 151.09163 | 10729 ft | 316 kts | 173° |
| 2026-05-04 00:28 | -33.50759 | 151.09577 | 10288 ft | 319 kts | 172° |
| 2026-05-04 00:28 | -33.52922 | 151.09994 | 10087 ft | 312 kts | 172° |
| 2026-05-04 00:29 | -33.55059 | 151.10408 | 9900 ft | 306 kts | 172° |
| 2026-05-04 00:29 | -33.57168 | 151.10817 | 9730 ft | 308 kts | 172° |
| 2026-05-04 00:29 | -33.59261 | 151.11224 | 9359 ft | 308 kts | 172° |
| 2026-05-04 00:29 | -33.61386 | 151.11634 | 9013 ft | 308 kts | 172° |
| 2026-05-04 00:30 | -33.63506 | 151.12047 | 8757 ft | 305 kts | 172° |
| 2026-05-04 00:30 | -33.65568 | 151.12453 | 8628 ft | 304 kts | 172° |
| 2026-05-04 00:30 | -33.67665 | 151.12868 | 8433 ft | 305 kts | 171° |
| 2026-05-04 00:30 | -33.69770 | 151.13285 | 8260 ft | 306 kts | 171° |
| 2026-05-04 00:31 | -33.71868 | 151.13697 | 8069 ft | 305 kts | 171° |
| 2026-05-04 00:31 | -33.73942 | 151.14101 | 7895 ft | 304 kts | 171° |
| 2026-05-04 00:31 | -33.76036 | 151.14507 | 7721 ft | 304 kts | 171° |
| 2026-05-04 00:31 | -33.78100 | 151.14906 | 7552 ft | 303 kts | 171° |
| 2026-05-04 00:32 | -33.80188 | 151.15268 | 7371 ft | 303 kts | 178° |
| 2026-05-04 00:32 | -33.82290 | 151.15140 | 7201 ft | 300 kts | 193° |
| 2026-05-04 00:32 | -33.84299 | 151.14575 | 7022 ft | 299 kts | 196° |
| 2026-05-04 00:32 | -33.86326 | 151.13985 | 6845 ft | 298 kts | 196° |
| 2026-05-04 00:33 | -33.88351 | 151.13400 | 6669 ft | 298 kts | 195° |
| 2026-05-04 00:33 | -33.92395 | 151.12231 | 6307 ft | 299 kts | 195° |
| 2026-05-04 00:33 | -33.94415 | 151.11654 | 6131 ft | 299 kts | 195° |
| 2026-05-04 00:34 | -33.96437 | 151.11076 | 5947 ft | 297 kts | 196° |
| 2026-05-04 00:34 | -33.98421 | 151.10506 | 5747 ft | 296 kts | 196° |
| 2026-05-04 00:34 | -34.00430 | 151.09926 | 5546 ft | 296 kts | 196° |
| 2026-05-04 00:34 | -34.02422 | 151.09352 | 5351 ft | 293 kts | 196° |
| 2026-05-04 00:35 | -34.04406 | 151.08778 | 5149 ft | 291 kts | 196° |
| 2026-05-04 00:35 | -34.06349 | 151.08216 | 4960 ft | 290 kts | 195° |
| 2026-05-04 00:35 | -34.08367 | 151.07972 | 4759 ft | 293 kts | 180° |
| 2026-05-04 00:35 | -34.10380 | 151.08326 | 4564 ft | 294 kts | 169° |
| 2026-05-04 00:36 | -34.12387 | 151.08850 | 4358 ft | 294 kts | 169° |
| 2026-05-04 00:36 | -34.14397 | 151.09375 | 4163 ft | 295 kts | 169° |
| 2026-05-04 00:36 | -34.16371 | 151.09890 | 3958 ft | 293 kts | 169° |
| 2026-05-04 00:36 | -34.18372 | 151.10412 | 3766 ft | 293 kts | 170° |
| 2026-05-04 00:37 | -34.20287 | 151.11181 | 3623 ft | 286 kts | 146° |
| 2026-05-04 00:37 | -34.21556 | 151.12873 | 3517 ft | 268 kts | 109° |
| 2026-05-04 00:37 | -34.21780 | 151.14967 | 3426 ft | 239 kts | 69° |
| 2026-05-04 00:37 | -34.21151 | 151.16713 | 3358 ft | 218 kts | 50° |
| 2026-05-04 00:38 | -34.20324 | 151.18176 | 3268 ft | 207 kts | 46° |
| 2026-05-04 00:38 | -34.19496 | 151.19574 | 3193 ft | 203 kts | 47° |
| 2026-05-04 00:38 | -34.18702 | 151.20988 | 3106 ft | 202 kts | 49° |
| 2026-05-04 00:38 | -34.17826 | 151.22244 | 3019 ft | 193 kts | 28° |
| 2026-05-04 00:39 | -34.16655 | 151.22929 | 3005 ft | 184 kts | 7° |
| 2026-05-04 00:39 | -34.15407 | 151.22987 | 3002 ft | 177 kts | 345° |
| 2026-05-04 00:39 | -34.14211 | 151.22688 | 3000 ft | 177 kts | 345° |
| 2026-05-04 00:39 | -34.13004 | 151.22377 | 2994 ft | 177 kts | 343° |
| 2026-05-04 00:40 | -34.11797 | 151.22063 | 2984 ft | 174 kts | 343° |
| 2026-05-04 00:40 | -34.10630 | 151.21760 | 2808 ft | 167 kts | 344° |
| 2026-05-04 00:40 | -34.09524 | 151.21473 | 2608 ft | 161 kts | 343° |
| 2026-05-04 00:40 | -34.08444 | 151.21192 | 2414 ft | 156 kts | 343° |
| 2026-05-04 00:41 | -34.07397 | 151.20919 | 2207 ft | 150 kts | 344° |
| 2026-05-04 00:41 | -34.06409 | 151.20662 | 2022 ft | 141 kts | 344° |
| 2026-05-04 00:41 | -34.05466 | 151.20416 | 1847 ft | 139 kts | 345° |
| 2026-05-04 00:41 | -34.04529 | 151.20172 | 1685 ft | 136 kts | 345° |
| 2026-05-04 00:42 | -34.03595 | 151.19930 | 1473 ft | 137 kts | 346° |
| 2026-05-04 00:42 | -34.02661 | 151.19685 | 1285 ft | 137 kts | 346° |
| 2026-05-04 00:42 | -34.01740 | 151.19442 | 1122 ft | 137 kts | 345° |
| 2026-05-04 00:42 | -34.00797 | 151.19199 | 947 ft | 137 kts | 348° |
| 2026-05-04 00:43 | -33.99872 | 151.18950 | 788 ft | 137 kts | 346° |
| 2026-05-04 00:43 | -33.98943 | 151.18715 | 631 ft | 141 kts | 349° |
| 2026-05-04 00:43 | -33.97999 | 151.18465 | 413 ft | 136 kts | 347° |
| 2026-05-04 00:43 | -33.97065 | 151.18231 | 213 ft | 136 kts | 348° |
| 2026-05-04 00:44 | -33.96148 | 151.17989 | 36 ft | 133 kts | 348° |
| 2026-05-04 00:44 | -33.95385 | 151.17795 | 29 ft | 88 kts | 348° |
| 2026-05-04 00:44 | -33.94936 | 151.17679 | 29 ft | 52 kts | 348° |
| 2026-05-04 00:44 | -33.94653 | 151.17644 | 29 ft | 36 kts | 7° |
| 2026-05-04 00:45 | -33.94456 | 151.17705 | 30 ft | 23 kts | 16° |
| 2026-05-04 00:45 | -33.94339 | 151.17738 | 30 ft | 16 kts | 352° |
| 2026-05-04 00:45 | -33.94218 | 151.17698 | 29 ft | 20 kts | 347° |
| 2026-05-04 00:45 | -33.94092 | 151.17662 | 28 ft | 20 kts | 347° |
| 2026-05-04 00:46 | -33.93949 | 151.17623 | 29 ft | 21 kts | 347° |
| 2026-05-04 00:46 | -33.93888 | 151.17621 | 29 ft | 8 kts | 31° |
| 2026-05-04 00:46 | -33.93859 | 151.17693 | 29 ft | 11 kts | 75° |
| 2026-05-04 00:46 | -33.93810 | 151.17763 | 30 ft | 12 kts | 20° |
| 2026-05-04 00:47 | -33.93718 | 151.17791 | 30 ft | 13 kts | 14° |
| 2026-05-04 00:47 | -33.93641 | 151.17813 | 30 ft | 12 kts | 11° |
| 2026-05-04 00:47 | -33.93568 | 151.17829 | 30 ft | 8 kts | 10° |
| 2026-05-04 00:47 | -33.93538 | 151.17834 | 30 ft | 2 kts | 1° |
| 2026-05-04 00:48 | -33.93531 | 151.17816 | 30 ft | 3 kts | 277° |
| 2026-05-04 00:48 | -33.93526 | 151.17780 | 30 ft | 2 kts | 280° |
| 2026-05-04 00:48 | -33.93525 | 151.17768 | 30 ft | 1 kts | 280° |
| 2026-05-04 00:48 | -33.93524 | 151.17765 | 30 ft | 0 kts | 279° |